Time;durP1;ratioP1;P1;durP2;ratioP2;P2;SDS_P1;SDS_P2;PMS_P1;PMS_P2;Temp;Humidity;BMP_temperature;BMP_pressure;BME280_temperature;BME280_humidity;BME280_pressure;Samples;Min_cycle;Max_cycle;Signal;HPM_P1;HPM_P2
2021/03/06 00:01:17;;;;;;;18.35;14.68;;;;;;;;;;5111773;28;20197;-43
2021/03/06 00:03:42;;;;;;;17.95;14.00;;;;;;;;;;5110864;28;20174;-44
2021/03/06 00:06:07;;;;;;;16.40;13.67;;;;;;;;;;5111629;28;20170;-44
2021/03/06 00:08:32;;;;;;;17.63;13.77;;;;;;;;;;5111111;28;20173;-49
2021/03/06 00:10:58;;;;;;;21.83;14.93;;;;;;;;;;5111310;28;20273;-43
2021/03/06 00:13:24;;;;;;;16.00;13.30;;;;;;;;;;5111173;28;20190;-43
2021/03/06 00:15:49;;;;;;;14.53;12.83;;;;;;;;;;5110841;28;20179;-43
2021/03/06 00:18:14;;;;;;;18.80;13.60;;;;;;;;;;5110777;28;20591;-43
2021/03/06 00:20:39;;;;;;;15.50;13.77;;;;;;;;;;5110951;28;20182;-43
2021/03/06 00:23:05;;;;;;;16.35;13.73;;;;;;;;;;5111062;28;20170;-41
2021/03/06 00:25:30;;;;;;;14.87;13.17;;;;;;;;;;5110911;28;20177;-42
2021/03/06 00:27:55;;;;;;;14.33;12.97;;;;;;;;;;5111003;28;20172;-42
2021/03/06 00:30:21;;;;;;;17.10;13.63;;;;;;;;;;5110452;28;20590;-42
2021/03/06 00:32:46;;;;;;;16.93;13.40;;;;;;;;;;5110494;28;20181;-42
2021/03/06 00:35:12;;;;;;;23.27;17.03;;;;;;;;;;5111173;28;20189;-42
2021/03/06 00:37:37;;;;;;;27.90;18.33;;;;;;;;;;5110546;28;20169;-42
2021/03/06 00:40:06;;;;;;;25.40;18.70;;;;;;;;;;5110469;28;20284;-43
2021/03/06 00:42:32;;;;;;;23.43;16.90;;;;;;;;;;5110279;28;20165;-42
2021/03/06 00:44:57;;;;;;;22.13;17.00;;;;;;;;;;5110768;28;20603;-43
2021/03/06 00:47:22;;;;;;;19.23;15.20;;;;;;;;;;5110813;28;20174;-43
2021/03/06 00:49:47;;;;;;;24.23;17.10;;;;;;;;;;5109943;28;20896;-43
2021/03/06 00:52:12;;;;;;;28.50;20.60;;;;;;;;;;5110076;28;20185;-44
2021/03/06 00:54:38;;;;;;;33.90;22.77;;;;;;;;;;5110307;28;20742;-42
2021/03/06 00:57:03;;;;;;;32.67;23.90;;;;;;;;;;5110641;28;20172;-42
2021/03/06 00:59:28;;;;;;;31.17;21.37;;;;;;;;;;5109863;28;20262;-43
2021/03/06 01:01:53;;;;;;;21.20;16.27;;;;;;;;;;5110068;28;20276;-43
2021/03/06 01:04:18;;;;;;;20.70;15.15;;;;;;;;;;5109853;28;20242;-43
2021/03/06 01:06:44;;;;;;;17.40;15.60;;;;;;;;;;5110036;28;20772;-43
2021/03/06 01:09:09;;;;;;;15.57;12.80;;;;;;;;;;5110326;28;20321;-43
2021/03/06 01:11:34;;;;;;;12.73;11.43;;;;;;;;;;5109878;28;20723;-43
2021/03/06 01:13:59;;;;;;;13.67;12.27;;;;;;;;;;5110453;28;20289;-43
2021/03/06 01:16:24;;;;;;;13.27;11.80;;;;;;;;;;5109939;28;20170;-43
2021/03/06 01:18:50;;;;;;;13.20;11.73;;;;;;;;;;5110140;28;20218;-43
2021/03/06 01:21:15;;;;;;;14.47;12.60;;;;;;;;;;5109109;28;20668;-44
2021/03/06 01:23:40;;;;;;;13.20;11.80;;;;;;;;;;5109846;28;20173;-43
2021/03/06 01:26:05;;;;;;;14.97;12.40;;;;;;;;;;5109786;28;20166;-43
2021/03/06 01:28:31;;;;;;;16.73;13.27;;;;;;;;;;5109987;28;20815;-42
2021/03/06 01:30:56;;;;;;;16.53;13.13;;;;;;;;;;5108230;28;20174;-42
2021/03/06 01:33:21;;;;;;;15.10;12.60;;;;;;;;;;5109277;28;20182;-42
2021/03/06 01:35:46;;;;;;;14.70;13.10;;;;;;;;;;5107876;28;20165;-42
2021/03/06 01:38:11;;;;;;;15.50;12.93;;;;;;;;;;5105857;28;20525;-43
2021/03/06 01:40:37;;;;;;;14.88;12.50;;;;;;;;;;5107124;28;20603;-43
2021/03/06 01:43:06;;;;;;;14.50;11.53;;;;;;;;;;5109771;28;20170;-41
2021/03/06 01:45:31;;;;;;;12.47;11.27;;;;;;;;;;5109452;28;20633;-42
2021/03/06 01:47:56;;;;;;;14.20;12.70;;;;;;;;;;5109632;28;20598;-43
2021/03/06 01:50:26;;;;;;;13.47;12.10;;;;;;;;;;5109149;28;20174;-42
2021/03/06 01:52:51;;;;;;;13.70;11.40;;;;;;;;;;5109715;28;20702;-43
2021/03/06 01:55:17;;;;;;;11.93;10.73;;;;;;;;;;5108686;28;20750;-43
2021/03/06 01:57:43;;;;;;;13.23;11.30;;;;;;;;;;5109160;28;20171;-43
2021/03/06 02:00:08;;;;;;;11.70;10.60;;;;;;;;;;5109237;28;20178;-43
2021/03/06 02:02:33;;;;;;;12.47;11.27;;;;;;;;;;5108694;28;20244;-42
2021/03/06 02:04:59;;;;;;;12.53;9.97;;;;;;;;;;5109753;28;20229;-42
2021/03/06 02:07:24;;;;;;;14.20;11.23;;;;;;;;;;5109231;28;20830;-42
2021/03/06 02:09:49;;;;;;;11.77;10.68;;;;;;;;;;5109393;28;20183;-43
2021/03/06 02:12:21;;;;;;;11.95;10.85;;;;;;;;;;5109187;28;20177;-42
2021/03/06 02:14:52;;;;;;;14.77;11.77;;;;;;;;;;5109148;28;20201;-42
2021/03/06 02:17:28;;;;;;;12.33;11.00;;;;;;;;;;5113622;28;20581;-42
2021/03/06 02:20:09;;;;;;;12.20;10.70;;;;;;;;;;5113978;27;20624;-42
2021/03/06 02:22:56;;;;;;;11.37;10.23;;;;;;;;;;5113263;28;20600;-43
2021/03/06 02:25:50;;;;;;;11.50;10.30;;;;;;;;;;5113230;28;20618;-43
2021/03/06 02:28:23;;;;;;;12.60;10.20;;;;;;;;;;5040246;28;20606;-43
2021/03/06 02:30:49;;;;;;;12.03;10.50;;;;;;;;;;5112839;28;20652;-43
2021/03/06 02:33:14;;;;;;;12.57;10.60;;;;;;;;;;5113011;28;20986;-43
2021/03/06 02:35:42;;;;;;;12.33;11.03;;;;;;;;;;5113285;28;20682;-43
2021/03/06 02:38:09;;;;;;;11.67;10.47;;;;;;;;;;5113327;28;20184;-43
2021/03/06 02:40:39;;;;;;;11.00;9.80;;;;;;;;;;5112638;28;20634;-42
2021/03/06 02:43:05;;;;;;;10.83;9.70;;;;;;;;;;5113109;28;20596;-42
2021/03/06 02:45:30;;;;;;;10.67;9.67;;;;;;;;;;5112750;28;20644;-44
2021/03/06 02:47:56;;;;;;;11.80;10.60;;;;;;;;;;5112721;28;20595;-42
2021/03/06 02:50:21;;;;;;;11.10;9.63;;;;;;;;;;5112941;28;20175;-42
2021/03/06 02:52:46;;;;;;;10.75;9.65;;;;;;;;;;5112295;28;20651;-42
2021/03/06 02:55:12;;;;;;;13.55;10.15;;;;;;;;;;5112387;28;20252;-43
2021/03/06 02:57:53;;;;;;;9.70;8.67;;;;;;;;;;5093745;28;20170;-43
2021/03/06 03:00:27;;;;;;;12.27;9.23;;;;;;;;;;5112534;28;20173;-43
2021/03/06 03:03:00;;;;;;;9.10;8.17;;;;;;;;;;5112018;28;20596;-44
2021/03/06 03:05:35;;;;;;;10.50;8.43;;;;;;;;;;5112958;28;20579;-43
2021/03/06 03:08:30;;;;;;;10.33;9.30;;;;;;;;;;5112700;28;20602;-43
2021/03/06 03:11:01;;;;;;;13.50;10.10;;;;;;;;;;5021000;28;20623;-43
2021/03/06 03:13:26;;;;;;;13.07;10.90;;;;;;;;;;5112228;28;20611;-42
2021/03/06 03:15:55;;;;;;;10.80;9.68;;;;;;;;;;5112484;28;20632;-43
2021/03/06 03:18:23;;;;;;;10.90;9.63;;;;;;;;;;5112442;28;20180;-44
2021/03/06 03:20:53;;;;;;;10.90;9.20;;;;;;;;;;5111950;28;20604;-43
2021/03/06 03:23:21;;;;;;;11.50;10.40;;;;;;;;;;5111905;28;20650;-41
2021/03/06 03:25:47;;;;;;;9.80;8.90;;;;;;;;;;5111828;28;20606;-42
2021/03/06 03:28:12;;;;;;;11.07;9.50;;;;;;;;;;5112011;28;20598;-43
2021/03/06 03:30:38;;;;;;;10.70;9.63;;;;;;;;;;5111828;28;20599;-42
2021/03/06 03:33:05;;;;;;;14.20;9.63;;;;;;;;;;5112128;27;20697;-43
2021/03/06 03:35:33;;;;;;;10.27;9.27;;;;;;;;;;5111874;28;20642;-42
2021/03/06 03:37:59;;;;;;;10.60;9.30;;;;;;;;;;5112272;28;20644;-44
2021/03/06 03:40:25;;;;;;;10.37;9.10;;;;;;;;;;5111861;28;20615;-42
2021/03/06 03:42:50;;;;;;;9.10;8.00;;;;;;;;;;5111476;28;20593;-43
2021/03/06 03:45:20;;;;;;;11.23;8.63;;;;;;;;;;5112459;28;20582;-42
2021/03/06 03:47:45;;;;;;;10.63;8.63;;;;;;;;;;5110895;28;20180;-42
2021/03/06 03:50:12;;;;;;;10.60;9.60;;;;;;;;;;5111846;28;20996;-43
2021/03/06 03:52:41;;;;;;;10.50;9.50;;;;;;;;;;5111339;28;20185;-42
2021/03/06 03:55:07;;;;;;;10.93;9.63;;;;;;;;;;5110650;28;21230;-43
2021/03/06 03:57:34;;;;;;;9.40;8.60;;;;;;;;;;5111655;28;20678;-43
2021/03/06 04:00:00;;;;;;;11.10;10.00;;;;;;;;;;5111250;28;20177;-43
2021/03/06 04:02:26;;;;;;;10.60;9.23;;;;;;;;;;5111252;28;20595;-42
2021/03/06 04:04:51;;;;;;;8.50;7.63;;;;;;;;;;5111593;28;20576;-42
2021/03/06 04:07:16;;;;;;;10.03;9.13;;;;;;;;;;5111765;28;20567;-43
2021/03/06 04:09:42;;;;;;;12.20;9.23;;;;;;;;;;5111001;28;20185;-42
2021/03/06 04:12:07;;;;;;;10.10;8.93;;;;;;;;;;5110985;28;20663;-44
2021/03/06 04:14:32;;;;;;;9.93;8.27;;;;;;;;;;5111173;28;20231;-42
2021/03/06 04:16:57;;;;;;;10.63;8.98;;;;;;;;;;5111070;28;20173;-42
2021/03/06 04:19:22;;;;;;;9.15;8.32;;;;;;;;;;5111332;27;20170;-42
2021/03/06 04:21:47;;;;;;;9.98;8.93;;;;;;;;;;5111066;28;20173;-42
2021/03/06 04:24:13;;;;;;;9.60;8.60;;;;;;;;;;5110616;28;20202;-42
2021/03/06 04:26:38;;;;;;;8.90;8.00;;;;;;;;;;5110792;28;20193;-42
2021/03/06 04:29:03;;;;;;;10.80;8.85;;;;;;;;;;5111022;28;20181;-42
2021/03/06 04:31:28;;;;;;;9.13;8.23;;;;;;;;;;5110780;28;20189;-42
2021/03/06 04:33:53;;;;;;;9.03;8.23;;;;;;;;;;5110388;28;20209;-43
2021/03/06 04:36:18;;;;;;;9.43;8.53;;;;;;;;;;5111125;28;20198;-43
2021/03/06 04:38:43;;;;;;;9.20;8.20;;;;;;;;;;5109333;28;20537;-44
2021/03/06 04:41:09;;;;;;;9.10;8.30;;;;;;;;;;5110796;28;20190;-43
2021/03/06 04:43:34;;;;;;;8.52;7.75;;;;;;;;;;5106998;28;20201;-44
2021/03/06 04:45:59;;;;;;;11.77;9.82;;;;;;;;;;5108685;28;20205;-43
2021/03/06 04:48:24;;;;;;;11.95;9.82;;;;;;;;;;5110244;28;20185;-44
2021/03/06 04:50:49;;;;;;;11.90;9.47;;;;;;;;;;5109772;28;20568;-43
2021/03/06 04:53:14;;;;;;;11.70;10.50;;;;;;;;;;5109739;28;20944;-42
2021/03/06 04:55:40;;;;;;;13.65;12.15;;;;;;;;;;5110273;28;20227;-42
2021/03/06 04:58:05;;;;;;;12.47;11.27;;;;;;;;;;5110593;28;20162;-44
2021/03/06 05:00:31;;;;;;;12.80;11.53;;;;;;;;;;5110035;28;20687;-45
2021/03/06 05:02:56;;;;;;;11.60;10.50;;;;;;;;;;5091981;28;20180;-43
2021/03/06 05:05:22;;;;;;;12.27;11.07;;;;;;;;;;5109910;28;20701;-43
2021/03/06 05:07:47;;;;;;;11.37;9.27;;;;;;;;;;5106944;28;20253;-43
2021/03/06 05:10:13;;;;;;;9.77;8.77;;;;;;;;;;5110114;28;20162;-42
2021/03/06 05:12:38;;;;;;;13.17;9.90;;;;;;;;;;5110260;28;20181;-41
2021/03/06 05:15:04;;;;;;;10.70;9.10;;;;;;;;;;5109846;28;20644;-42
2021/03/06 05:17:29;;;;;;;10.53;9.07;;;;;;;;;;5110091;28;20181;-45
2021/03/06 05:19:54;;;;;;;13.05;9.45;;;;;;;;;;5108187;28;20599;-42
2021/03/06 05:22:20;;;;;;;8.60;7.80;;;;;;;;;;5109950;28;20246;-41
2021/03/06 05:24:45;;;;;;;8.87;8.00;;;;;;;;;;5109578;28;20552;-42
2021/03/06 05:27:11;;;;;;;9.63;8.70;;;;;;;;;;5109777;28;20659;-43
2021/03/06 05:29:36;;;;;;;10.10;9.03;;;;;;;;;;5109521;28;20255;-43
2021/03/06 05:32:03;;;;;;;10.15;9.07;;;;;;;;;;5109749;28;20256;-44
2021/03/06 05:34:28;;;;;;;13.03;9.43;;;;;;;;;;5109773;28;20195;-44
2021/03/06 05:36:54;;;;;;;9.87;8.87;;;;;;;;;;5109362;28;20586;-43
2021/03/06 05:39:19;;;;;;;9.57;8.65;;;;;;;;;;5109447;28;20181;-43
2021/03/06 05:41:44;;;;;;;10.97;9.67;;;;;;;;;;5108641;28;20174;-43
2021/03/06 05:44:11;;;;;;;9.77;8.77;;;;;;;;;;5107860;28;20257;-42
2021/03/06 05:46:36;;;;;;;9.53;8.60;;;;;;;;;;5109796;28;20196;-43
2021/03/06 05:49:02;;;;;;;10.27;9.20;;;;;;;;;;5104720;28;21071;-43
2021/03/06 05:51:27;;;;;;;10.53;9.50;;;;;;;;;;5108909;28;20582;-44
2021/03/06 05:53:53;;;;;;;9.45;8.55;;;;;;;;;;5107534;28;20257;-44
2021/03/06 05:56:18;;;;;;;10.07;8.73;;;;;;;;;;5109738;28;20184;-44
2021/03/06 05:58:43;;;;;;;8.33;7.43;;;;;;;;;;5109165;28;20177;-44
2021/03/06 06:01:12;;;;;;;10.13;9.03;;;;;;;;;;5109504;28;20632;-43
2021/03/06 06:03:37;;;;;;;9.57;8.60;;;;;;;;;;5109577;28;20260;-42
2021/03/06 06:06:02;;;;;;;11.07;9.43;;;;;;;;;;5109831;28;21011;-42
2021/03/06 06:08:27;;;;;;;9.00;8.10;;;;;;;;;;5109385;28;20195;-42
2021/03/06 06:10:53;;;;;;;8.40;7.70;;;;;;;;;;5108012;28;20177;-43
2021/03/06 06:13:18;;;;;;;9.57;8.27;;;;;;;;;;5109414;28;20538;-43
2021/03/06 06:15:43;;;;;;;10.03;8.93;;;;;;;;;;5109852;28;20223;-43
2021/03/06 06:18:08;;;;;;;11.60;10.20;;;;;;;;;;5109398;28;20173;-44
2021/03/06 06:20:36;;;;;;;12.97;11.10;;;;;;;;;;5108064;28;20177;-42
2021/03/06 06:23:12;;;;;;;8.60;7.80;;;;;;;;;;5104700;28;20182;-42
2021/03/06 06:25:38;;;;;;;9.73;8.37;;;;;;;;;;5108243;28;20622;-42
2021/03/06 06:28:04;;;;;;;9.77;8.77;;;;;;;;;;5106492;28;21132;-43
2021/03/06 06:30:29;;;;;;;11.27;8.27;;;;;;;;;;5109008;28;20716;-42
2021/03/06 06:32:55;;;;;;;9.30;8.30;;;;;;;;;;5108782;28;20620;-42
2021/03/06 06:35:20;;;;;;;9.50;8.30;;;;;;;;;;5109129;28;20220;-47
2021/03/06 06:37:56;;;;;;;9.43;7.80;;;;;;;;;;5106190;28;20269;-43
2021/03/06 06:40:22;;;;;;;9.87;8.90;;;;;;;;;;5101897;28;20551;-42
2021/03/06 06:42:47;;;;;;;11.83;8.50;;;;;;;;;;5107304;28;21198;-42
2021/03/06 06:45:13;;;;;;;8.60;7.80;;;;;;;;;;5109965;28;20696;-43
2021/03/06 06:47:41;;;;;;;7.87;7.00;;;;;;;;;;5105264;28;20218;-42
2021/03/06 06:50:09;;;;;;;7.93;6.97;;;;;;;;;;5107942;28;20174;-41
2021/03/06 06:52:36;;;;;;;7.73;6.60;;;;;;;;;;5107411;28;20595;-43
2021/03/06 06:55:01;;;;;;;7.87;7.20;;;;;;;;;;5107041;28;20789;-43
2021/03/06 06:57:27;;;;;;;7.60;6.87;;;;;;;;;;5108000;28;20596;-43
2021/03/06 06:59:56;;;;;;;9.70;7.57;;;;;;;;;;5099405;28;20181;-43
2021/03/06 07:02:22;;;;;;;8.47;7.27;;;;;;;;;;5110136;28;20543;-43
2021/03/06 07:04:51;;;;;;;7.33;6.67;;;;;;;;;;5111577;28;20591;-43
2021/03/06 07:07:17;;;;;;;7.07;6.47;;;;;;;;;;5110758;28;20232;-43
2021/03/06 07:10:01;;;;;;;8.23;6.40;;;;;;;;;;5111765;28;21160;-43
2021/03/06 07:12:27;;;;;;;7.77;6.83;;;;;;;;;;5110417;28;20308;-43
2021/03/06 07:14:53;;;;;;;7.37;6.67;;;;;;;;;;5111268;28;20643;-42
2021/03/06 07:17:18;;;;;;;8.07;7.23;;;;;;;;;;5111478;28;21209;-43
2021/03/06 07:19:44;;;;;;;7.80;7.00;;;;;;;;;;5111423;28;20175;-43
2021/03/06 07:22:09;;;;;;;10.07;6.90;;;;;;;;;;5109347;28;20174;-43
2021/03/06 07:24:34;;;;;;;10.37;7.73;;;;;;;;;;5109689;28;20185;-44
2021/03/06 07:27:00;;;;;;;7.22;6.53;;;;;;;;;;5111268;28;20591;-43
2021/03/06 07:29:26;;;;;;;8.27;7.30;;;;;;;;;;5111476;28;20210;-43
2021/03/06 07:31:54;;;;;;;7.90;7.10;;;;;;;;;;5120113;27;20273;-43
2021/03/06 07:34:20;;;;;;;8.07;6.97;;;;;;;;;;5110286;28;20206;-42
2021/03/06 07:36:46;;;;;;;7.70;7.00;;;;;;;;;;5110002;28;20591;-42
2021/03/06 07:39:12;;;;;;;8.03;7.30;;;;;;;;;;5111509;28;20595;-43
2021/03/06 07:41:39;;;;;;;8.43;7.10;;;;;;;;;;5111090;28;20174;-42
2021/03/06 07:44:06;;;;;;;8.03;7.20;;;;;;;;;;5107928;28;20620;-42
2021/03/06 07:46:31;;;;;;;9.60;8.07;;;;;;;;;;5093960;28;20726;-43
2021/03/06 07:48:57;;;;;;;10.07;6.80;;;;;;;;;;5109956;28;21134;-47
2021/03/06 07:51:23;;;;;;;8.83;7.50;;;;;;;;;;5105988;27;20244;-42
2021/03/06 07:53:48;;;;;;;7.57;6.97;;;;;;;;;;5107392;28;20646;-42
2021/03/06 07:56:14;;;;;;;7.27;6.57;;;;;;;;;;5110937;28;20170;-42
2021/03/06 07:58:48;;;;;;;8.00;6.80;;;;;;;;;;5109078;28;20175;-43
2021/03/06 08:01:43;;;;;;;8.03;7.33;;;;;;;;;;5110784;28;20171;-43
2021/03/06 08:04:28;;;;;;;6.87;6.20;;;;;;;;;;5088782;28;20618;-44
2021/03/06 08:07:10;;;;;;;8.90;7.90;;;;;;;;;;5101920;28;20605;-43
2021/03/06 08:09:55;;;;;;;7.20;6.50;;;;;;;;;;5111335;28;20697;-43
2021/03/06 08:12:29;;;;;;;8.53;6.83;;;;;;;;;;5106049;28;20679;-46
2021/03/06 08:14:54;;;;;;;7.23;6.40;;;;;;;;;;5110290;28;20645;-41
2021/03/06 08:17:39;;;;;;;6.30;5.72;;;;;;;;;;5110323;28;20602;-42
2021/03/06 08:20:06;;;;;;;9.20;6.93;;;;;;;;;;5109254;28;20172;-42
2021/03/06 08:22:32;;;;;;;6.40;5.77;;;;;;;;;;5110660;28;20627;-42
2021/03/06 08:25:14;;;;;;;6.97;6.30;;;;;;;;;;5109937;28;20994;-41
2021/03/06 08:27:39;;;;;;;8.37;6.47;;;;;;;;;;5101999;28;20183;-43
2021/03/06 08:30:05;;;;;;;7.13;6.43;;;;;;;;;;5109234;28;21182;-42
2021/03/06 08:32:31;;;;;;;10.20;6.90;;;;;;;;;;5109078;28;20184;-43
2021/03/06 08:35:15;;;;;;;7.53;6.83;;;;;;;;;;5110390;28;20217;-42
2021/03/06 08:37:40;;;;;;;7.77;7.00;;;;;;;;;;5109120;28;20586;-42
2021/03/06 08:40:11;;;;;;;7.03;6.30;;;;;;;;;;5109438;28;20631;-42
2021/03/06 08:42:36;;;;;;;7.60;6.90;;;;;;;;;;5105773;28;20263;-43
2021/03/06 08:45:16;;;;;;;8.63;7.10;;;;;;;;;;5109550;28;20767;-43
2021/03/06 08:47:44;;;;;;;7.50;6.80;;;;;;;;;;5108210;27;20196;-43
2021/03/06 08:50:11;;;;;;;7.13;6.43;;;;;;;;;;5108191;27;20661;-42
2021/03/06 08:52:38;;;;;;;7.77;7.10;;;;;;;;;;5109788;27;20598;-45
2021/03/06 08:55:04;;;;;;;7.13;6.30;;;;;;;;;;5111423;27;21315;-43
2021/03/06 08:57:38;;;;;;;8.07;6.33;;;;;;;;;;5106139;27;20613;-43
2021/03/06 09:00:08;;;;;;;8.03;6.30;;;;;;;;;;5113094;27;20178;-43
2021/03/06 09:02:34;;;;;;;6.23;5.73;;;;;;;;;;5111691;27;20653;-44
2021/03/06 09:05:02;;;;;;;6.00;5.50;;;;;;;;;;5109402;28;21336;-42
2021/03/06 09:07:31;;;;;;;8.00;7.20;;;;;;;;;;5108082;28;20315;-42
2021/03/06 09:10:11;;;;;;;6.90;6.27;;;;;;;;;;5108579;28;21506;-43
2021/03/06 09:12:40;;;;;;;7.57;5.57;;;;;;;;;;5110180;28;20563;-42
2021/03/06 09:15:06;;;;;;;5.37;4.97;;;;;;;;;;5109984;28;20651;-43
2021/03/06 09:17:31;;;;;;;4.20;3.90;;;;;;;;;;5109086;28;21000;-42
2021/03/06 09:20:01;;;;;;;5.65;5.15;;;;;;;;;;5109515;28;20257;-43
2021/03/06 09:22:26;;;;;;;5.13;4.70;;;;;;;;;;5109632;28;20168;-43
2021/03/06 09:24:52;;;;;;;5.20;4.20;;;;;;;;;;5109375;28;20604;-43
2021/03/06 09:27:18;;;;;;;5.50;4.90;;;;;;;;;;5109326;28;20663;-43
2021/03/06 09:29:43;;;;;;;5.93;5.10;;;;;;;;;;5109895;28;20574;-43
2021/03/06 09:32:09;;;;;;;5.13;4.70;;;;;;;;;;5109672;28;20631;-43
2021/03/06 09:34:35;;;;;;;4.80;4.40;;;;;;;;;;5109225;28;20198;-42
2021/03/06 09:37:15;;;;;;;5.07;4.57;;;;;;;;;;5096500;28;20170;-42
2021/03/06 09:39:41;;;;;;;5.07;4.67;;;;;;;;;;5109429;28;20193;-42
2021/03/06 09:42:06;;;;;;;4.63;4.23;;;;;;;;;;5109717;28;21157;-43
2021/03/06 09:44:32;;;;;;;6.07;4.17;;;;;;;;;;5108783;28;20235;-44
2021/03/06 09:46:59;;;;;;;4.20;3.80;;;;;;;;;;5108776;28;20261;-43
2021/03/06 09:49:32;;;;;;;6.80;4.47;;;;;;;;;;5109572;28;20176;-43
2021/03/06 09:51:57;;;;;;;7.50;4.70;;;;;;;;;;5109279;28;20614;-42
2021/03/06 09:54:24;;;;;;;3.70;3.50;;;;;;;;;;5109467;28;20651;-43
2021/03/06 09:56:51;;;;;;;3.70;3.50;;;;;;;;;;5105957;28;20166;-43
2021/03/06 09:59:17;;;;;;;3.77;3.47;;;;;;;;;;5109191;28;20587;-44
2021/03/06 10:01:42;;;;;;;4.20;3.43;;;;;;;;;;5109221;28;21146;-43
2021/03/06 10:04:09;;;;;;;3.80;3.50;;;;;;;;;;5108858;28;20573;-44
2021/03/06 10:06:35;;;;;;;3.90;3.60;;;;;;;;;;5107720;28;20177;-42
2021/03/06 10:09:03;;;;;;;4.43;3.50;;;;;;;;;;5109460;28;20564;-43
2021/03/06 10:11:29;;;;;;;3.73;3.43;;;;;;;;;;5109489;28;20572;-42
2021/03/06 10:13:55;;;;;;;3.57;3.27;;;;;;;;;;5108892;28;20662;-42
2021/03/06 10:16:20;;;;;;;4.50;3.80;;;;;;;;;;5108775;28;20615;-43
2021/03/06 10:18:46;;;;;;;3.70;3.40;;;;;;;;;;5109055;28;20249;-42
2021/03/06 10:21:12;;;;;;;4.20;3.80;;;;;;;;;;5108667;28;20901;-44
2021/03/06 10:23:37;;;;;;;3.47;3.17;;;;;;;;;;5109100;28;20169;-42
2021/03/06 10:26:19;;;;;;;4.10;3.80;;;;;;;;;;5108611;28;20945;-43
2021/03/06 10:28:45;;;;;;;5.00;4.50;;;;;;;;;;5088406;28;20226;-44
2021/03/06 10:31:29;;;;;;;4.10;3.60;;;;;;;;;;5104542;28;20661;-43
2021/03/06 10:33:55;;;;;;;4.30;3.87;;;;;;;;;;5108699;28;21200;-42
2021/03/06 10:36:20;;;;;;;3.93;3.73;;;;;;;;;;5109509;28;20601;-43
2021/03/06 10:38:45;;;;;;;3.77;3.47;;;;;;;;;;5112861;28;20627;-42
2021/03/06 10:41:21;;;;;;;4.53;4.13;;;;;;;;;;5112140;28;20246;-44
2021/03/06 10:43:53;;;;;;;4.07;3.77;;;;;;;;;;5112610;28;20287;-44
2021/03/06 10:46:22;;;;;;;4.33;4.00;;;;;;;;;;5112625;28;20691;-43
2021/03/06 10:48:57;;;;;;;4.57;4.17;;;;;;;;;;5112445;28;20614;-44
2021/03/06 10:51:23;;;;;;;4.60;4.20;;;;;;;;;;5112228;28;21168;-43
2021/03/06 10:54:01;;;;;;;5.03;4.67;;;;;;;;;;5111746;28;20675;-42
2021/03/06 10:56:26;;;;;;;5.33;4.93;;;;;;;;;;5111541;28;20169;-42
2021/03/06 10:58:52;;;;;;;4.90;4.53;;;;;;;;;;5111638;28;20678;-43
2021/03/06 11:01:17;;;;;;;5.40;5.00;;;;;;;;;;5110453;27;20178;-43
2021/03/06 11:03:46;;;;;;;4.70;4.30;;;;;;;;;;5110852;28;20696;-43
2021/03/06 11:06:11;;;;;;;5.10;4.60;;;;;;;;;;5109666;27;20182;-43
2021/03/06 11:08:37;;;;;;;4.77;4.33;;;;;;;;;;5112877;27;20599;-42
2021/03/06 11:11:03;;;;;;;4.97;4.60;;;;;;;;;;5104081;28;20205;-43
2021/03/06 11:13:39;;;;;;;4.77;4.40;;;;;;;;;;5104864;27;20607;-43
2021/03/06 11:16:04;;;;;;;5.27;4.83;;;;;;;;;;5110526;28;20188;-42
2021/03/06 11:18:29;;;;;;;5.23;4.83;;;;;;;;;;5112824;28;20584;-43
2021/03/06 11:20:55;;;;;;;4.67;4.37;;;;;;;;;;5109266;28;20178;-43
2021/03/06 11:23:20;;;;;;;5.20;4.80;;;;;;;;;;5111388;28;20220;-42
2021/03/06 11:25:45;;;;;;;5.68;5.07;;;;;;;;;;5111823;28;20812;-42
2021/03/06 11:28:12;;;;;;;4.93;4.53;;;;;;;;;;5110587;28;20692;-42
2021/03/06 11:30:41;;;;;;;4.87;4.47;;;;;;;;;;5109256;28;20189;-42
2021/03/06 11:33:07;;;;;;;5.00;4.70;;;;;;;;;;5107729;28;20645;-41
2021/03/06 11:35:33;;;;;;;5.27;4.87;;;;;;;;;;5110661;28;20670;-42
2021/03/06 11:37:59;;;;;;;4.80;4.40;;;;;;;;;;5111445;28;20628;-41
2021/03/06 11:40:26;;;;;;;5.80;5.30;;;;;;;;;;5107040;28;20190;-42
2021/03/06 11:42:52;;;;;;;4.77;4.40;;;;;;;;;;5106006;28;20260;-43
2021/03/06 11:45:18;;;;;;;5.40;4.90;;;;;;;;;;5110521;28;20692;-43
2021/03/06 11:47:45;;;;;;;5.50;5.00;;;;;;;;;;5109830;28;20170;-43
2021/03/06 11:50:11;;;;;;;5.67;5.17;;;;;;;;;;5109596;28;20611;-43
2021/03/06 11:52:36;;;;;;;5.67;5.17;;;;;;;;;;5110931;28;20595;-41
2021/03/06 11:55:02;;;;;;;5.07;4.67;;;;;;;;;;5110183;28;20662;-42
2021/03/06 11:57:27;;;;;;;46.77;25.63;;;;;;;;;;5110533;28;21003;-41
2021/03/06 11:59:53;;;;;;;12.45;9.55;;;;;;;;;;5110130;28;21186;-43
2021/03/06 12:02:18;;;;;;;38.43;25.00;;;;;;;;;;5110344;28;20649;-41
2021/03/06 12:04:43;;;;;;;41.23;23.67;;;;;;;;;;5108854;28;20227;-42
2021/03/06 12:07:09;;;;;;;13.47;10.50;;;;;;;;;;5107442;27;20186;-42
2021/03/06 12:09:34;;;;;;;22.20;16.37;;;;;;;;;;5106419;28;20184;-42
2021/03/06 12:11:59;;;;;;;11.20;9.98;;;;;;;;;;5107887;28;20529;-42
2021/03/06 12:14:24;;;;;;;7.82;7.03;;;;;;;;;;5107889;27;20727;-44
2021/03/06 12:16:50;;;;;;;21.83;16.38;;;;;;;;;;5106934;27;20186;-42
2021/03/06 12:19:15;;;;;;;17.77;12.55;;;;;;;;;;5098948;28;20178;-44
2021/03/06 12:21:40;;;;;;;13.55;10.10;;;;;;;;;;5107468;28;20602;-42
2021/03/06 12:24:05;;;;;;;15.95;11.93;;;;;;;;;;5108166;28;20184;-43
2021/03/06 12:26:30;;;;;;;11.37;10.27;;;;;;;;;;5107578;28;20190;-43
2021/03/06 12:28:55;;;;;;;6.00;5.50;;;;;;;;;;5107446;28;20576;-43
2021/03/06 12:31:21;;;;;;;6.80;6.17;;;;;;;;;;5107190;28;20188;-43
2021/03/06 12:33:46;;;;;;;6.07;5.67;;;;;;;;;;5107650;27;20176;-43
2021/03/06 12:36:12;;;;;;;5.40;5.00;;;;;;;;;;5107326;27;20181;-47
2021/03/06 12:38:37;;;;;;;5.60;5.17;;;;;;;;;;5106484;28;20588;-43
2021/03/06 12:41:03;;;;;;;5.20;4.73;;;;;;;;;;5107468;28;20627;-42
2021/03/06 12:43:28;;;;;;;6.20;5.70;;;;;;;;;;5107392;28;20188;-43
2021/03/06 12:45:53;;;;;;;5.87;5.47;;;;;;;;;;5106923;28;20192;-43
2021/03/06 12:48:18;;;;;;;5.43;5.03;;;;;;;;;;5107069;28;20645;-42
2021/03/06 12:50:43;;;;;;;4.83;4.33;;;;;;;;;;5107421;28;20200;-43
2021/03/06 12:53:09;;;;;;;4.63;4.33;;;;;;;;;;5107175;28;20241;-43
2021/03/06 12:55:34;;;;;;;5.60;5.20;;;;;;;;;;5105225;28;20198;-43
2021/03/06 12:57:59;;;;;;;4.32;4.03;;;;;;;;;;5094431;28;20257;-43
2021/03/06 13:00:24;;;;;;;6.80;6.28;;;;;;;;;;5085042;28;20181;-43
2021/03/06 13:02:50;;;;;;;5.70;5.20;;;;;;;;;;5107124;27;20182;-43
2021/03/06 13:05:15;;;;;;;5.50;5.00;;;;;;;;;;5106708;28;20192;-42
2021/03/06 13:07:41;;;;;;;5.45;5.07;;;;;;;;;;5101989;27;21157;-44
2021/03/06 13:10:06;;;;;;;5.07;4.77;;;;;;;;;;5104614;28;20174;-44
2021/03/06 13:12:31;;;;;;;5.30;4.80;;;;;;;;;;5106621;28;20214;-43
2021/03/06 13:14:56;;;;;;;4.90;4.50;;;;;;;;;;5103855;28;20205;-43
2021/03/06 13:17:22;;;;;;;5.13;4.73;;;;;;;;;;5105034;28;20352;-42
2021/03/06 13:19:47;;;;;;;4.17;3.97;;;;;;;;;;5106284;27;20539;-43
2021/03/06 13:22:12;;;;;;;4.83;4.43;;;;;;;;;;5108390;28;20198;-43
2021/03/06 13:24:37;;;;;;;5.07;4.70;;;;;;;;;;5108930;28;20648;-43
2021/03/06 13:27:03;;;;;;;4.53;4.23;;;;;;;;;;5109243;28;20178;-42
2021/03/06 13:29:28;;;;;;;5.30;4.90;;;;;;;;;;5109065;28;20231;-43
2021/03/06 13:31:53;;;;;;;5.10;4.70;;;;;;;;;;5108372;28;20625;-43
2021/03/06 13:34:19;;;;;;;4.90;4.40;;;;;;;;;;5108217;28;20189;-43
2021/03/06 13:36:44;;;;;;;4.80;4.50;;;;;;;;;;5109134;28;20171;-43
2021/03/06 13:39:09;;;;;;;4.72;4.40;;;;;;;;;;5108901;28;20198;-45
2021/03/06 13:41:34;;;;;;;5.13;4.73;;;;;;;;;;5096256;28;20170;-44
2021/03/06 13:44:00;;;;;;;4.50;4.20;;;;;;;;;;5109412;28;20180;-44
2021/03/06 13:46:25;;;;;;;5.00;4.50;;;;;;;;;;5109062;28;20170;-44
2021/03/06 13:48:50;;;;;;;5.20;4.90;;;;;;;;;;5109057;28;20186;-42
2021/03/06 13:51:15;;;;;;;6.07;5.47;;;;;;;;;;5109033;28;20170;-43
2021/03/06 13:53:40;;;;;;;5.40;4.90;;;;;;;;;;5109281;28;20228;-43
2021/03/06 13:56:06;;;;;;;5.18;4.75;;;;;;;;;;5109062;28;20170;-43
2021/03/06 13:58:31;;;;;;;5.20;4.80;;;;;;;;;;5109145;28;20223;-42
2021/03/06 14:00:56;;;;;;;5.80;5.30;;;;;;;;;;5109508;28;20250;-43
2021/03/06 14:03:24;;;;;;;5.17;4.87;;;;;;;;;;5109140;28;20180;-44
2021/03/06 14:05:49;;;;;;;5.70;5.30;;;;;;;;;;5109366;28;20170;-43
2021/03/06 14:08:14;;;;;;;5.80;5.30;;;;;;;;;;5108825;28;20605;-43
2021/03/06 14:10:40;;;;;;;6.07;5.57;;;;;;;;;;5110763;28;20178;-42
2021/03/06 14:13:05;;;;;;;6.20;5.70;;;;;;;;;;5110357;28;20185;-43
2021/03/06 14:15:32;;;;;;;6.00;5.50;;;;;;;;;;5113157;28;20680;-44
2021/03/06 14:17:58;;;;;;;5.87;5.47;;;;;;;;;;5112612;28;20854;-43
2021/03/06 14:20:23;;;;;;;6.20;5.70;;;;;;;;;;5113079;28;20677;-43
2021/03/06 14:22:48;;;;;;;6.40;5.90;;;;;;;;;;5112395;28;20576;-43
2021/03/06 14:25:13;;;;;;;6.70;6.10;;;;;;;;;;5112825;28;20523;-43
2021/03/06 14:27:39;;;;;;;7.70;6.83;;;;;;;;;;5112828;28;20177;-43
2021/03/06 14:30:05;;;;;;;8.63;7.83;;;;;;;;;;5112861;28;20177;-43
2021/03/06 14:32:30;;;;;;;14.80;10.90;;;;;;;;;;5110930;28;20182;-43